createdAt,value
2018-04-15T00:01:10.994Z,101704.23
2018-04-15T00:03:39.676Z,101702.19
2018-04-15T00:06:08.067Z,101700.52
2018-04-15T00:08:36.714Z,101701.34
2018-04-15T00:11:05.706Z,101696.36
2018-04-15T00:13:35.193Z,101686.77
2018-04-15T00:16:04.712Z,101680.17
2018-04-15T00:18:35.095Z,101674.72
2018-04-15T00:21:03.377Z,101672.23
2018-04-15T00:23:32.655Z,101652.72
2018-04-15T00:26:01.634Z,101646.55
2018-04-15T00:28:31.935Z,101636.14
2018-04-15T00:31:02.215Z,101629.13
2018-04-15T00:33:31.290Z,101626.61
2018-04-15T00:36:00.994Z,101629.59
2018-04-15T00:38:29.596Z,101621.30
2018-04-15T00:40:58.595Z,101620.48
2018-04-15T00:43:27.094Z,101620.59
2018-04-15T00:45:55.554Z,101616.37
2018-04-15T00:48:23.966Z,101616.02
2018-04-15T00:50:52.262Z,101625.54
2018-04-15T00:53:21.983Z,101622.17
2018-04-15T00:55:51.267Z,101613.48
2018-04-15T00:58:20.322Z,101614.31
2018-04-15T01:00:48.590Z,101616.37
2018-04-15T01:03:16.962Z,101612.19
2018-04-15T01:05:47.597Z,101613.70
2018-04-15T01:08:15.866Z,101619.16
2018-04-15T01:10:44.383Z,101621.58
2018-04-15T01:13:13.915Z,101620.72
2018-04-15T01:15:42.318Z,101615.30
2018-04-15T01:18:12.231Z,101616.06
2018-04-15T01:20:41.300Z,101615.22
2018-04-15T01:23:10.374Z,101608.14
2018-04-15T01:25:38.659Z,101608.54
2018-04-15T01:28:06.923Z,101608.96
2018-04-15T01:30:35.304Z,101605.26
2018-04-15T01:33:03.874Z,101601.41
2018-04-15T01:35:32.255Z,101604.78
2018-04-15T01:38:00.532Z,101599.34
2018-04-15T01:40:29.146Z,101594.36
2018-04-15T01:42:57.698Z,101594.00
2018-04-15T01:45:26.066Z,101596.86
2018-04-15T01:47:54.353Z,101592.72
2018-04-15T01:50:22.642Z,101591.11
2018-04-15T01:52:50.920Z,101590.69
2018-04-15T01:55:21.319Z,101587.48
2018-04-15T01:57:49.608Z,101589.07
2018-04-15T02:00:18.475Z,101580.27
2018-04-15T02:02:47.723Z,101588.56
2018-04-15T02:05:16.950Z,101591.88
2018-04-15T02:07:45.639Z,101592.64
2018-04-15T02:10:14.418Z,101595.64
2018-04-15T02:12:44.048Z,101581.97
2018-04-15T02:15:12.364Z,101586.90
2018-04-15T02:17:40.668Z,101586.08
2018-04-15T02:20:09.463Z,101586.98
2018-04-15T02:22:38.051Z,101584.86
2018-04-15T02:25:06.430Z,101578.66
2018-04-15T02:27:34.838Z,101573.20
2018-04-15T02:30:03.345Z,101569.08
2018-04-15T02:32:32.487Z,101573.23
2018-04-15T02:35:00.862Z,101566.92
2018-04-15T02:37:29.142Z,101560.30
2018-04-15T02:39:58.871Z,101549.08
2018-04-15T02:42:27.435Z,101548.20
2018-04-15T02:44:56.459Z,101547.41
2018-04-15T02:47:24.842Z,101549.82
2018-04-15T02:49:53.107Z,101537.40
2018-04-15T02:52:21.859Z,101534.95
2018-04-15T02:54:50.262Z,101527.41
2018-04-15T02:57:19.053Z,101527.66
2018-04-15T02:59:47.362Z,101528.85
2018-04-15T03:02:15.785Z,101524.72
2018-04-15T03:04:44.094Z,101530.20
2018-04-15T03:07:12.477Z,101541.38
2018-04-15T03:09:40.859Z,101533.14
2018-04-15T03:12:09.991Z,101526.45
2018-04-15T03:14:39.368Z,101521.47
2018-04-15T03:17:09.202Z,101523.77
2018-04-15T03:19:38.586Z,101524.89
2018-04-15T03:22:06.854Z,101527.75
2018-04-15T03:24:35.175Z,101523.59
2018-04-15T03:27:04.232Z,101514.45
2018-04-15T03:29:32.537Z,101515.75
2018-04-15T03:32:00.830Z,101516.20
2018-04-15T03:34:30.070Z,101508.87
2018-04-15T03:37:00.073Z,101510.80
2018-04-15T03:39:28.348Z,101506.62
2018-04-15T03:41:56.650Z,101504.87
2018-04-15T03:44:24.966Z,101493.23
2018-04-15T03:46:53.738Z,101491.59
2018-04-15T03:49:25.809Z,101499.45
2018-04-15T03:51:54.362Z,101490.34
2018-04-15T03:54:23.401Z,101490.73
2018-04-15T03:56:52.249Z,101493.97
2018-04-15T03:59:20.885Z,101495.84
2018-04-15T04:01:50.530Z,101493.70
2018-04-15T04:04:19.053Z,101494.00
2018-04-15T04:06:49.069Z,101488.98
2018-04-15T04:09:17.556Z,101489.74
2018-04-15T04:11:47.317Z,101491.27
2018-04-15T04:14:15.952Z,101479.44
2018-04-15T04:16:44.233Z,101482.81
2018-04-15T04:22:52.712Z,101487.03
2018-04-15T04:25:30.234Z,101487.28
2018-04-15T04:27:58.719Z,101493.02
2018-04-15T04:30:27.814Z,101486.94
2018-04-15T04:32:56.082Z,101491.67
2018-04-15T04:35:25.125Z,101490.53
2018-04-15T04:37:53.675Z,101485.69
2018-04-15T04:40:22.799Z,101490.05
2018-04-15T04:42:51.147Z,101488.78
2018-04-15T04:45:19.527Z,101491.63
2018-04-15T04:47:47.822Z,101492.53
2018-04-15T04:50:17.146Z,101487.94
2018-04-15T04:52:45.495Z,101493.23
2018-04-15T04:55:14.575Z,101495.11
2018-04-15T04:57:44.232Z,101489.20
2018-04-15T05:00:12.883Z,101488.02
2018-04-15T05:02:42.110Z,101489.75
2018-04-15T05:05:11.019Z,101489.33
2018-04-15T05:07:40.545Z,101488.14
2018-04-15T05:10:11.074Z,101488.17
2018-04-15T05:12:40.503Z,101492.81
2018-04-15T05:15:08.776Z,101491.23
2018-04-15T05:17:37.043Z,101485.66
2018-04-15T05:20:05.678Z,101493.32
2018-04-15T05:22:34.022Z,101489.35
2018-04-15T05:25:02.336Z,101483.80
2018-04-15T05:27:30.630Z,101487.61
2018-04-15T05:29:59.027Z,101490.25
2018-04-15T05:32:29.296Z,101484.31
2018-04-15T05:34:57.607Z,101486.60
2018-04-15T05:37:25.891Z,101481.33
2018-04-15T05:39:54.383Z,101478.08
2018-04-15T05:42:23.202Z,101477.91
2018-04-15T05:44:52.108Z,101478.44
2018-04-15T05:47:20.714Z,101476.05
2018-04-15T05:49:49.430Z,101482.82
2018-04-15T05:52:17.757Z,101480.86
2018-04-15T05:54:46.175Z,101476.94
2018-04-15T05:57:14.450Z,101478.74
2018-04-15T05:59:43.052Z,101472.50
2018-04-15T06:02:11.365Z,101475.27
2018-04-15T06:04:40.158Z,101473.33
2018-04-15T06:07:09.002Z,101469.17
2018-04-15T06:09:37.550Z,101473.91
2018-04-15T06:12:06.564Z,101480.80
2018-04-15T06:14:35.218Z,101482.46
2018-04-15T06:17:04.554Z,101478.33
2018-04-15T06:19:33.275Z,101489.98
2018-04-15T06:22:01.562Z,101475.48
2018-04-15T06:24:30.820Z,101483.95
2018-04-15T06:26:59.120Z,101487.86
2018-04-15T06:29:28.168Z,101487.73
2018-04-15T06:31:56.550Z,101480.34
2018-04-15T06:34:25.782Z,101482.59
2018-04-15T06:36:54.885Z,101488.58
2018-04-15T06:39:23.750Z,101487.43
2018-04-15T06:41:52.902Z,101480.59
2018-04-15T06:44:22.862Z,101480.24
2018-04-15T06:46:52.390Z,101476.22
2018-04-15T06:49:20.684Z,101474.31
2018-04-15T06:51:48.960Z,101473.61
2018-04-15T06:54:17.865Z,101474.36
2018-04-15T06:56:46.150Z,101470.11
2018-04-15T06:59:15.298Z,101471.59
2018-04-15T07:01:44.435Z,101469.28
2018-04-15T07:04:13.024Z,101473.52
2018-04-15T07:06:42.110Z,101468.19
2018-04-15T07:09:10.802Z,101469.14
2018-04-15T07:11:39.885Z,101468.70
2018-04-15T07:14:08.159Z,101468.88
2018-04-15T07:16:36.482Z,101469.77
2018-04-15T07:19:05.736Z,101467.69
2018-04-15T07:21:34.050Z,101474.45
2018-04-15T07:24:03.083Z,101475.79
2018-04-15T07:26:33.549Z,101480.84
2018-04-15T07:29:02.346Z,101480.08
2018-04-15T07:31:30.663Z,101479.89
2018-04-15T07:33:59.268Z,101483.19
2018-04-15T07:36:28.408Z,101483.94
2018-04-15T07:38:56.675Z,101484.37
2018-04-15T07:41:24.970Z,101485.11
2018-04-15T07:43:54.567Z,101485.27
2018-04-15T07:46:23.357Z,101481.94
2018-04-15T07:48:56.547Z,101488.52
2018-04-15T07:51:24.899Z,101493.63
2018-04-15T07:53:53.491Z,101488.78
2018-04-15T07:56:22.739Z,101494.19
2018-04-15T07:58:52.084Z,101489.53
2018-04-15T08:01:21.175Z,101488.23
2018-04-15T08:03:49.462Z,101498.61
2018-04-15T08:06:17.754Z,101494.52
2018-04-15T08:08:46.771Z,101496.54
2018-04-15T08:11:15.075Z,101498.28
2018-04-15T08:13:44.021Z,101494.63
2018-04-15T08:16:12.314Z,101491.75
2018-04-15T08:18:40.651Z,101485.48
2018-04-15T08:21:09.740Z,101480.97
2018-04-15T08:23:38.014Z,101482.09
2018-04-15T08:26:06.411Z,101480.37
2018-04-15T08:28:34.723Z,101484.17
2018-04-15T08:31:03.032Z,101479.55
2018-04-15T08:33:32.075Z,101473.73
2018-04-15T08:36:00.386Z,101467.59
2018-04-15T08:38:28.787Z,101463.48
2018-04-15T08:40:57.314Z,101471.09
2018-04-15T08:43:26.000Z,101460.28
2018-04-15T08:45:54.321Z,101455.31
2018-04-15T08:48:23.410Z,101463.77
2018-04-15T08:50:51.706Z,101456.83
2018-04-15T08:53:22.375Z,101458.42
2018-04-15T08:55:52.227Z,101448.48
2018-04-15T08:58:20.501Z,101445.17
2018-04-15T09:00:49.256Z,101443.59
2018-04-15T09:03:18.299Z,101443.11
2018-04-15T09:05:46.578Z,101436.95
2018-04-15T09:08:15.035Z,101430.66
2018-04-15T09:10:45.730Z,101427.92
2018-04-15T09:13:14.015Z,101427.53
2018-04-15T09:15:42.387Z,101424.31
2018-04-15T09:18:10.720Z,101420.55
2018-04-15T09:20:38.961Z,101428.81
2018-04-15T09:23:07.267Z,101424.07
2018-04-15T09:25:36.605Z,101416.48
2018-04-15T09:28:05.762Z,101414.23
2018-04-15T09:30:39.542Z,101409.30
2018-04-15T09:33:08.301Z,101414.39
2018-04-15T09:35:38.266Z,101410.11
2018-04-15T09:38:07.490Z,101401.55
2018-04-15T09:40:35.888Z,101406.66
2018-04-15T09:43:04.954Z,101404.30
2018-04-15T09:45:33.335Z,101407.10
2018-04-15T09:48:01.659Z,101400.45
2018-04-15T09:50:30.728Z,101405.70
2018-04-15T09:52:59.067Z,101399.88
2018-04-15T09:55:28.184Z,101395.79
2018-04-15T09:57:56.474Z,101398.86
2018-04-15T10:00:24.774Z,101393.08
2018-04-15T10:02:53.915Z,101396.66
2018-04-15T10:05:22.241Z,101400.27
2018-04-15T10:07:52.062Z,101397.87
2018-04-15T10:10:21.396Z,101394.34
2018-04-15T10:12:49.691Z,101391.59
2018-04-15T10:15:18.691Z,101393.75
2018-04-15T10:17:47.534Z,101386.00
2018-04-15T10:20:21.114Z,101387.43
2018-04-15T10:22:49.682Z,101390.23
2018-04-15T10:25:17.967Z,101396.48
2018-04-15T10:27:46.844Z,101385.67
2018-04-15T10:30:15.850Z,101390.41
2018-04-15T10:32:44.232Z,101384.33
2018-04-15T10:35:12.606Z,101376.16
2018-04-15T10:37:41.616Z,101368.75
2018-04-15T10:40:09.901Z,101374.34
2018-04-15T10:42:38.233Z,101372.79
2018-04-15T10:45:06.626Z,101369.48
2018-04-15T10:47:35.239Z,101370.27
2018-04-15T10:50:03.592Z,101366.59
2018-04-15T10:52:31.882Z,101363.94
2018-04-15T10:55:00.378Z,101359.17
2018-04-15T10:57:29.552Z,101355.17
2018-04-15T10:59:58.075Z,101354.69
2018-04-15T11:02:27.958Z,101352.19
2018-04-15T11:04:57.669Z,101346.78
2018-04-15T11:07:26.672Z,101332.61
2018-04-15T11:09:55.004Z,101332.75
2018-04-15T11:12:23.310Z,101334.69
2018-04-15T11:14:51.699Z,101325.28
2018-04-15T11:17:20.168Z,101326.45
2018-04-15T11:19:48.451Z,101313.68
2018-04-15T11:22:17.026Z,101320.66
2018-04-15T11:24:46.182Z,101322.98
2018-04-15T11:27:15.739Z,101319.54
2018-04-15T11:29:44.069Z,101318.84
2018-04-15T11:32:13.107Z,101312.23
2018-04-15T11:34:41.482Z,101306.09
2018-04-15T11:37:09.770Z,101295.39
2018-04-15T11:39:38.060Z,101283.20
2018-04-15T11:42:06.452Z,101291.67
2018-04-15T11:44:34.703Z,101278.78
2018-04-15T11:47:02.984Z,101277.00
2018-04-15T11:49:31.287Z,101277.94
2018-04-15T11:51:59.919Z,101267.36
2018-04-15T11:54:28.210Z,101262.41
2018-04-15T11:56:56.720Z,101265.81
2018-04-15T11:59:25.010Z,101256.06
2018-04-15T12:01:53.590Z,101256.42
2018-04-15T12:04:21.893Z,101256.46
2018-04-15T12:06:50.946Z,101248.37
2018-04-15T12:09:19.282Z,101249.73
2018-04-15T12:11:47.921Z,101244.40
2018-04-15T12:14:16.574Z,101248.37
2018-04-15T12:16:44.895Z,101250.55
2018-04-15T12:19:13.391Z,101254.25
2018-04-15T12:21:42.331Z,101255.13
2018-04-15T12:24:10.725Z,101249.20
2018-04-15T12:26:39.015Z,101251.28
2018-04-15T12:29:07.830Z,101241.17
2018-04-15T12:31:36.131Z,101241.00
2018-04-15T12:34:05.557Z,101238.88
2018-04-15T12:36:33.839Z,101239.77
2018-04-15T12:39:02.171Z,101236.87
2018-04-15T12:41:30.959Z,101232.63
2018-04-15T12:44:00.056Z,101231.40
2018-04-15T12:46:28.897Z,101232.95
2018-04-15T12:48:57.184Z,101229.55
2018-04-15T12:51:25.806Z,101230.77
2018-04-15T12:53:54.099Z,101234.78
2018-04-15T12:56:23.179Z,101228.55
2018-04-15T12:58:51.527Z,101223.16
2018-04-15T13:01:19.814Z,101213.86
2018-04-15T13:03:48.179Z,101213.09
2018-04-15T13:06:16.663Z,101205.19
2018-04-15T13:08:45.772Z,101205.63
2018-04-15T13:11:15.809Z,101204.90
2018-04-15T13:13:45.238Z,101199.55
2018-04-15T13:16:15.370Z,101195.38
2018-04-15T13:18:44.436Z,101192.92
2018-04-15T13:21:12.707Z,101178.31
2018-04-15T13:23:41.093Z,101176.50
2018-04-15T13:26:10.551Z,101171.83
2018-04-15T13:28:38.859Z,101164.37
2018-04-15T13:31:07.136Z,101173.22
2018-04-15T13:33:35.607Z,101170.93
2018-04-15T13:36:03.903Z,101169.27
2018-04-15T13:38:32.700Z,101168.28
2018-04-15T13:41:01.064Z,101164.23
2018-04-15T13:43:29.450Z,101151.45
2018-04-15T13:45:58.207Z,101147.02
2018-04-15T13:48:26.510Z,101151.61
2018-04-15T13:50:54.795Z,101163.68
2018-04-15T13:53:23.158Z,101162.34
2018-04-15T13:55:52.174Z,101161.57
2018-04-15T13:58:20.467Z,101161.77
2018-04-15T14:00:48.742Z,101155.03
2018-04-15T14:03:17.151Z,101148.78
2018-04-15T14:05:45.434Z,101150.06
2018-04-15T14:08:13.806Z,101145.12
2018-04-15T14:10:43.046Z,101139.78
2018-04-15T14:13:12.125Z,101144.38
2018-04-15T14:15:40.419Z,101144.05
2018-04-15T14:18:08.738Z,101146.56
2018-04-15T14:20:37.035Z,101139.09
2018-04-15T14:23:06.098Z,101142.06
2018-04-15T14:25:34.763Z,101144.88
2018-04-15T14:28:03.038Z,101137.38
2018-04-15T14:30:32.152Z,101145.74
2018-04-15T14:33:00.639Z,101147.35
2018-04-15T14:35:28.947Z,101144.07
2018-04-15T14:37:57.235Z,101136.16
2018-04-15T14:40:27.153Z,101133.13
2018-04-15T14:42:55.734Z,101131.56
2018-04-15T14:45:25.311Z,101136.66
2018-04-15T14:47:55.081Z,101131.64
2018-04-15T14:50:23.362Z,101131.63
2018-04-15T14:52:53.168Z,101127.05
2018-04-15T14:55:21.454Z,101126.22
2018-04-15T14:57:50.996Z,101121.92
2018-04-15T15:00:19.491Z,101126.58
2018-04-15T15:02:47.847Z,101126.20
2018-04-15T15:05:16.747Z,101127.88
2018-04-15T15:07:45.122Z,101126.63
2018-04-15T15:10:13.703Z,101129.44
2018-04-15T15:12:41.983Z,101124.03
2018-04-15T15:15:10.306Z,101130.78
2018-04-15T15:17:39.473Z,101129.92
2018-04-15T15:20:08.008Z,101127.43
2018-04-15T15:22:36.336Z,101128.28
2018-04-15T15:25:05.535Z,101125.77
2018-04-15T15:27:33.808Z,101126.13
2018-04-15T15:30:02.599Z,101121.52
2018-04-15T15:32:30.935Z,101125.30
2018-04-15T15:34:59.218Z,101124.44
2018-04-15T15:37:28.939Z,101129.44
2018-04-15T15:39:57.244Z,101129.03
2018-04-15T15:42:25.548Z,101130.69
2018-04-15T15:44:54.902Z,101130.66
2018-04-15T15:47:23.975Z,101131.09
2018-04-15T15:49:52.858Z,101125.63
2018-04-15T15:52:21.140Z,101118.13
2018-04-15T15:54:49.429Z,101115.63
2018-04-15T15:57:17.743Z,101107.72
2018-04-15T15:59:46.018Z,101113.56
2018-04-15T16:02:14.400Z,101110.22
2018-04-15T16:04:42.779Z,101106.45
2018-04-15T16:07:11.061Z,101112.73
2018-04-15T16:09:39.400Z,101115.22
2018-04-15T16:12:08.007Z,101123.12
2018-04-15T16:14:36.320Z,101121.87
2018-04-15T16:17:04.975Z,101119.83
2018-04-15T16:19:33.275Z,101121.52
2018-04-15T16:22:02.362Z,101124.36
2018-04-15T16:24:30.683Z,101125.61
2018-04-15T16:27:00.173Z,101119.78
2018-04-15T16:29:30.166Z,101124.34
2018-04-15T16:31:59.458Z,101126.01
2018-04-15T16:34:27.751Z,101120.18
2018-04-15T16:36:56.077Z,101126.03
2018-04-15T16:39:25.933Z,101121.03
2018-04-15T16:41:54.851Z,101117.72
2018-04-15T16:44:24.153Z,101118.13
2018-04-15T16:46:54.346Z,101121.47
2018-04-15T16:49:22.976Z,101119.36
2018-04-15T16:51:52.305Z,101122.71
2018-04-15T16:54:20.615Z,101119.86
2018-04-15T16:56:48.899Z,101114.48
2018-04-15T16:59:17.545Z,101112.77
2018-04-15T17:01:46.632Z,101114.90
2018-04-15T17:04:14.937Z,101118.65
2018-04-15T17:06:43.668Z,101119.03
2018-04-15T17:09:11.972Z,101114.42
2018-04-15T17:11:40.274Z,101114.42
2018-04-15T17:14:08.584Z,101111.91
2018-04-15T17:16:37.912Z,101110.67
2018-04-15T17:19:07.834Z,101110.60
2018-04-15T17:21:36.885Z,101113.98
2018-04-15T17:24:05.333Z,101111.44
2018-04-15T17:26:36.688Z,101118.09
2018-04-15T17:29:05.092Z,101120.96
2018-04-15T17:31:33.531Z,101128.02
2018-04-15T17:34:02.899Z,101123.83
2018-04-15T17:36:31.227Z,101128.00
2018-04-15T17:38:59.515Z,101122.59
2018-04-15T17:41:27.935Z,101130.44
2018-04-15T17:43:57.280Z,101129.92
2018-04-15T17:46:25.570Z,101129.16
2018-04-15T17:48:54.278Z,101133.73
2018-04-15T17:51:22.589Z,101136.62
2018-04-15T17:53:50.936Z,101130.36
2018-04-15T17:56:20.207Z,101139.98
2018-04-15T17:58:48.517Z,101139.98
2018-04-15T18:01:16.874Z,101138.28
2018-04-15T18:03:45.197Z,101141.19
2018-04-15T18:06:14.259Z,101146.24
2018-04-15T18:08:42.870Z,101143.25
2018-04-15T18:11:11.201Z,101147.42
2018-04-15T18:13:40.683Z,101150.72
2018-04-15T18:16:11.246Z,101149.08
2018-04-15T18:18:39.777Z,101145.73
2018-04-15T18:21:09.560Z,101143.62
2018-04-15T18:23:38.131Z,101145.31
2018-04-15T18:26:06.431Z,101148.64
2018-04-15T18:28:34.731Z,101148.14
2018-04-15T18:31:04.857Z,101152.37
2018-04-15T18:33:33.940Z,101154.43
2018-04-15T18:36:02.240Z,101161.52
2018-04-15T18:38:31.682Z,101161.96
2018-04-15T18:41:00.104Z,101168.19
2018-04-15T18:43:28.423Z,101166.49
2018-04-15T18:45:56.830Z,101161.88
2018-04-15T18:48:25.121Z,101165.20
2018-04-15T18:50:53.475Z,101168.97
2018-04-15T18:53:21.764Z,101165.61
2018-04-15T18:55:50.050Z,101168.10
2018-04-15T18:58:18.425Z,101172.70
2018-04-15T19:00:47.022Z,101172.69
2018-04-15T19:03:15.900Z,101173.52
2018-04-15T19:05:44.212Z,101171.00
2018-04-15T19:08:12.784Z,101177.66
2018-04-15T19:10:41.235Z,101185.17
2018-04-15T19:13:09.533Z,101180.62
2018-04-15T19:15:38.576Z,101169.77
2018-04-15T19:18:08.391Z,101171.48
2018-04-15T19:20:38.223Z,101177.69
2018-04-15T19:23:07.227Z,101180.22
2018-04-15T19:25:35.515Z,101176.84
2018-04-15T19:28:06.840Z,101169.73
2018-04-15T19:30:35.893Z,101173.08
2018-04-15T19:33:04.192Z,101173.08
2018-04-15T19:35:32.524Z,101178.52
2018-04-15T19:38:00.898Z,101171.81
2018-04-15T19:40:29.256Z,101156.00
2018-04-15T19:42:59.523Z,101163.54
2018-04-15T19:45:27.811Z,101158.11
2018-04-15T19:47:56.679Z,101160.58
2018-04-15T19:50:25.020Z,101160.98
2018-04-15T19:52:54.584Z,101158.06
2018-04-15T19:55:22.878Z,101160.52
2018-04-15T19:57:51.463Z,101158.39
2018-04-15T20:00:19.853Z,101156.70
2018-04-15T20:02:48.170Z,101157.47
2018-04-15T20:05:16.689Z,101163.66
2018-04-15T20:07:45.619Z,101158.66
2018-04-15T20:10:14.678Z,101152.79
2018-04-15T20:12:44.110Z,101153.52
2018-04-15T20:15:15.288Z,101155.45
2018-04-15T20:17:44.055Z,101149.13
2018-04-15T20:20:13.865Z,101146.83
2018-04-15T20:22:43.267Z,101135.95
2018-04-15T20:25:13.344Z,101139.16
2018-04-15T20:27:42.490Z,101127.89
2018-04-15T20:30:12.050Z,101122.14
2018-04-15T20:32:40.432Z,101127.54
2018-04-15T20:35:08.722Z,101124.71
2018-04-15T20:37:37.083Z,101128.83
2018-04-15T20:40:06.279Z,101125.84
2018-04-15T20:42:34.683Z,101116.15
2018-04-15T20:45:02.973Z,101123.56
2018-04-15T20:47:31.541Z,101123.06
2018-04-15T20:49:59.820Z,101126.28
2018-04-15T20:52:28.877Z,101123.73
2018-04-15T20:54:57.531Z,101131.41
2018-04-15T20:57:28.343Z,101129.20
2018-04-15T20:59:56.634Z,101121.20
2018-04-15T21:02:25.784Z,101111.50
2018-04-15T21:04:54.315Z,101108.02
2018-04-15T21:07:22.619Z,101099.93
2018-04-15T21:09:51.667Z,101107.34
2018-04-15T21:12:20.701Z,101102.00
2018-04-15T21:14:49.759Z,101103.34
2018-04-15T21:17:18.855Z,101101.68
2018-04-15T21:19:48.184Z,101102.12
2018-04-15T21:22:16.431Z,101102.41
2018-04-15T21:24:44.708Z,101099.52
2018-04-15T21:27:13.184Z,101088.59
2018-04-15T21:29:41.459Z,101089.38
2018-04-15T21:32:10.431Z,101092.22
2018-04-15T21:34:39.371Z,101086.79
2018-04-15T21:37:09.187Z,101078.84
2018-04-15T21:39:38.518Z,101078.34
2018-04-15T21:42:07.567Z,101075.15
2018-04-15T21:44:36.739Z,101077.11
2018-04-15T21:47:05.143Z,101074.94
2018-04-15T21:49:33.634Z,101071.94
2018-04-15T21:52:02.002Z,101078.17
2018-04-15T21:54:30.602Z,101090.67
2018-04-15T21:56:59.264Z,101101.05
2018-04-15T21:59:28.570Z,101098.57
2018-04-15T22:02:00.024Z,101091.77
2018-04-15T22:04:28.519Z,101095.03
2018-04-15T22:06:57.679Z,101099.98
2018-04-15T22:09:26.826Z,101105.26
2018-04-15T22:12:13.242Z,101107.44
2018-04-15T22:14:41.674Z,101101.64
2018-04-15T22:17:12.936Z,101097.78
2018-04-15T22:19:41.436Z,101092.31
2018-04-15T22:22:09.798Z,101096.48
2018-04-15T22:24:38.070Z,101093.18
2018-04-15T22:27:06.380Z,101091.57
2018-04-15T22:29:34.639Z,101089.89
2018-04-15T22:32:04.390Z,101088.64
2018-04-15T22:34:32.626Z,101097.69
2018-04-15T22:37:00.898Z,101106.45
2018-04-15T22:39:29.174Z,101100.22
2018-04-15T22:41:57.651Z,101095.20
2018-04-15T22:44:26.369Z,101107.98
2018-04-15T22:46:55.343Z,101127.52
2018-04-15T22:49:23.672Z,101120.91
2018-04-15T22:51:52.715Z,101107.19
2018-04-15T22:54:21.895Z,101108.26
2018-04-15T22:56:50.503Z,101107.31
2018-04-15T22:59:18.899Z,101089.32
2018-04-15T23:01:47.194Z,101087.27
2018-04-15T23:04:16.279Z,101092.35
2018-04-15T23:06:45.174Z,101078.25
2018-04-15T23:09:13.439Z,101067.63
2018-04-15T23:11:41.859Z,101056.81
2018-04-15T23:14:11.823Z,101056.58
2018-04-15T23:16:40.122Z,101056.14
2018-04-15T23:19:08.464Z,101054.98
2018-04-15T23:21:37.409Z,101061.49
2018-04-15T23:24:06.490Z,101061.58
2018-04-15T23:26:35.610Z,101055.78
2018-04-15T23:29:05.170Z,101059.16
2018-04-15T23:31:34.458Z,101064.09
2018-04-15T23:34:02.754Z,101071.54
2018-04-15T23:36:31.126Z,101079.47
2018-04-15T23:38:59.571Z,101074.52
2018-04-15T23:41:28.719Z,101067.44
2018-04-15T23:43:57.009Z,101071.95
2018-04-15T23:46:26.103Z,101076.88
2018-04-15T23:48:55.157Z,101083.52
2018-04-15T23:51:23.434Z,101085.90
2018-04-15T23:53:53.470Z,101093.05
2018-04-15T23:56:21.774Z,101088.10
2018-04-15T23:58:50.324Z,101086.00
